Time;durP1;ratioP1;P1;durP2;ratioP2;P2;SDS_P1;SDS_P2;PMS_P1;PMS_P2;Temp;Humidity;BMP_temperature;BMP_pressure;BME280_temperature;BME280_humidity;BME280_pressure;Samples;Min_cycle;Max_cycle;Signal;HPM_P1;HPM_P2
2023/03/07 00:00:15;;;;;;;0.80;0.80;;;3.80;65.10;;;3.32;52.20;93679.00;5115148;28;20289;-18
2023/03/07 00:02:42;;;;;;;0.73;0.73;;;3.70;65.30;;;3.28;52.07;93678.53;5131407;27;20259;-18
2023/03/07 00:05:09;;;;;;;0.73;0.73;;;3.70;65.50;;;3.23;52.14;93680.06;5115412;28;20190;-18
2023/03/07 00:07:37;;;;;;;0.80;0.80;;;3.60;65.40;;;3.19;52.08;93677.03;5115137;28;20555;-18
2023/03/07 00:10:05;;;;;;;0.68;0.68;;;3.60;65.30;;;3.13;52.19;93675.94;5115005;28;20190;-19
2023/03/07 00:12:32;;;;;;;0.80;0.80;;;3.50;65.30;;;3.10;52.09;93678.91;5115373;28;20194;-19
2023/03/07 00:14:59;;;;;;;0.82;0.82;;;3.50;65.40;;;2.98;53.55;93670.75;5115066;28;20204;-18
2023/03/07 00:17:26;;;;;;;0.70;0.70;;;3.40;66.10;;;2.91;53.64;93667.25;5114675;28;20544;-18
2023/03/07 00:19:52;;;;;;;0.80;0.80;;;3.30;66.00;;;2.91;53.16;93662.06;5114871;28;20187;-19
2023/03/07 00:22:19;;;;;;;0.75;0.75;;;3.30;66.30;;;2.84;54.23;93669.72;5114187;28;20194;-18
2023/03/07 00:24:47;;;;;;;0.80;0.80;;;3.20;66.40;;;2.81;53.51;93680.44;5114853;28;20226;-18
2023/03/07 00:27:14;;;;;;;0.77;0.77;;;3.20;66.20;;;2.78;53.63;93675.59;5115539;28;20186;-18
2023/03/07 00:29:41;;;;;;;0.80;0.80;;;3.20;66.30;;;2.77;53.25;93674.00;5117066;28;20190;-18
2023/03/07 00:32:08;;;;;;;0.80;0.80;;;3.20;66.30;;;2.72;52.97;93669.34;5117811;28;20194;-18
2023/03/07 00:34:35;;;;;;;0.70;0.70;;;3.10;66.10;;;2.67;54.38;93674.25;5100848;28;20227;-18
2023/03/07 00:37:02;;;;;;;0.80;0.80;;;3.10;66.70;;;2.64;53.39;93673.78;5135814;27;20198;-18
2023/03/07 00:39:29;;;;;;;0.70;0.70;;;3.00;66.40;;;2.63;53.46;93662.63;5118567;28;20213;-18
2023/03/07 00:41:56;;;;;;;0.80;0.80;;;2.90;66.20;;;2.55;53.54;93665.25;5118578;28;20193;-18
2023/03/07 00:44:24;;;;;;;0.80;0.80;;;2.90;66.30;;;2.50;53.02;93655.44;5117836;28;20182;-19
2023/03/07 00:46:51;;;;;;;0.80;0.80;;;2.90;66.40;;;2.45;53.75;93660.31;5118565;27;20216;-18
2023/03/07 00:49:19;;;;;;;0.70;0.70;;;2.80;66.50;;;2.38;54.06;93662.81;5134589;27;20232;-18
2023/03/07 00:51:47;;;;;;;0.80;0.80;;;2.80;66.70;;;2.36;53.27;93656.19;5118485;28;20276;-19
2023/03/07 00:54:15;;;;;;;0.80;0.80;;;2.70;66.50;;;2.31;53.50;93655.91;5117406;28;20198;-18
2023/03/07 00:56:42;;;;;;;0.80;0.80;;;2.70;66.70;;;2.26;54.75;93661.59;5117349;28;20209;-18
2023/03/07 00:59:10;;;;;;;0.70;0.70;;;2.70;66.80;;;2.24;54.43;93655.78;5134216;27;20554;-18
2023/03/07 01:01:37;;;;;;;0.80;0.80;;;2.60;66.90;;;2.22;54.50;93660.31;5117266;28;20668;-19
2023/03/07 01:04:04;;;;;;;0.60;0.60;;;2.60;67.10;;;2.16;54.46;93650.66;5118470;28;20204;-18
2023/03/07 01:06:33;;;;;;;0.80;0.80;;;2.50;66.90;;;2.13;54.20;93646.63;5117186;28;20247;-18
2023/03/07 01:09:06;;;;;;;0.70;0.70;;;2.50;67.10;;;2.11;54.49;93655.53;5134283;27;20218;-18
2023/03/07 01:11:36;;;;;;;0.80;0.80;;;2.50;67.00;;;2.10;54.29;93654.75;5134514;27;20236;-18
2023/03/07 01:14:05;;;;;;;0.80;0.80;;;2.50;67.00;;;2.08;53.86;93646.34;5117978;28;20603;-18
2023/03/07 01:16:36;;;;;;;0.80;0.80;;;2.50;67.00;;;2.09;53.72;93645.38;5118009;28;20239;-18
2023/03/07 01:19:08;;;;;;;0.85;0.85;;;2.40;66.90;;;2.07;54.32;93639.56;5117690;27;20290;-19
2023/03/07 01:21:39;;;;;;;0.80;0.80;;;2.40;67.20;;;2.07;54.09;93632.59;5117268;28;20201;-19
2023/03/07 01:24:11;;;;;;;0.80;0.80;;;2.40;67.20;;;2.06;54.51;93633.59;5117809;28;20226;-19
2023/03/07 01:26:38;;;;;;;0.70;0.70;;;2.40;67.30;;;2.11;54.93;93629.66;5117091;28;20259;-18
2023/03/07 01:29:06;;;;;;;0.80;0.80;;;2.40;67.50;;;2.15;54.54;93626.56;5133825;27;20637;-18
2023/03/07 01:31:35;;;;;;;0.80;0.80;;;2.50;67.50;;;2.20;54.55;93620.91;5116584;28;20194;-18
2023/03/07 01:34:03;;;;;;;0.80;0.80;;;2.50;67.50;;;2.26;54.27;93617.63;5117618;27;20629;-18
2023/03/07 01:36:34;;;;;;;0.70;0.70;;;2.60;67.70;;;2.32;55.39;93614.34;5116636;28;20250;-19
2023/03/07 01:39:12;;;;;;;0.80;0.80;;;2.70;68.20;;;2.40;55.17;93611.69;5133638;27;20225;-18
2023/03/07 01:42:02;;;;;;;0.80;0.80;;;2.80;68.20;;;2.49;55.92;93609.84;5117157;27;20606;-18
2023/03/07 01:44:29;;;;;;;0.80;0.80;;;2.80;68.20;;;2.59;55.15;93608.78;5116443;28;20315;-19
2023/03/07 01:46:59;;;;;;;0.70;0.70;;;2.90;68.10;;;2.64;55.66;93598.72;5116401;28;20670;-18
2023/03/07 01:49:44;;;;;;;0.70;0.70;;;3.00;68.40;;;2.70;55.76;93596.22;5133356;27;20709;-18
2023/03/07 01:52:21;;;;;;;0.80;0.80;;;3.10;68.40;;;2.77;56.08;93608.47;5116704;27;20194;-18
2023/03/07 01:54:58;;;;;;;0.80;0.80;;;3.20;68.70;;;2.87;55.22;93598.66;5099913;28;20284;-19
2023/03/07 01:57:32;;;;;;;0.80;0.80;;;3.20;68.40;;;2.95;55.38;93595.97;5116602;28;20522;-18
2023/03/07 02:00:07;;;;;;;0.73;0.73;;;3.30;68.40;;;2.99;54.91;93589.47;5115920;28;20660;-18
2023/03/07 02:02:41;;;;;;;0.80;0.80;;;3.40;68.20;;;3.05;55.26;93600.88;5117368;28;20568;-19
2023/03/07 02:05:36;;;;;;;0.80;0.80;;;3.50;68.30;;;3.15;54.73;93595.44;5099493;28;20238;-18
2023/03/07 02:08:07;;;;;;;0.80;0.80;;;3.50;68.10;;;3.20;55.03;93585.38;5113681;28;20202;-18
2023/03/07 02:10:36;;;;;;;0.70;0.70;;;3.60;67.90;;;3.27;54.63;93585.44;5116132;28;20625;-18
2023/03/07 02:13:04;;;;;;;0.80;0.80;;;3.60;67.80;;;3.31;54.59;93586.72;5132970;27;20212;-19
2023/03/07 02:15:33;;;;;;;0.70;0.70;;;3.70;67.90;;;3.31;54.45;93574.53;5132750;27;20270;-19
2023/03/07 02:18:02;;;;;;;0.60;0.60;;;3.70;67.80;;;3.32;54.89;93596.06;5115901;27;20586;-18
2023/03/07 02:21:02;;;;;;;0.80;0.80;;;3.80;67.80;;;3.37;54.49;93596.34;5116847;28;20276;-19
2023/03/07 02:23:40;;;;;;;0.80;0.80;;;3.80;67.70;;;3.39;54.28;93571.03;5116503;28;20237;-19
2023/03/07 02:26:29;;;;;;;0.80;0.80;;;3.90;67.70;;;3.47;54.10;93581.31;5116699;28;20616;-19
2023/03/07 02:28:59;;;;;;;0.60;0.60;;;3.90;67.60;;;3.45;54.63;93582.50;5132750;27;20248;-18
2023/03/07 02:31:27;;;;;;;0.80;0.80;;;3.90;67.70;;;3.47;54.73;93575.34;5098639;28;20537;-19
2023/03/07 02:33:54;;;;;;;0.80;0.80;;;4.00;67.80;;;3.50;54.24;93580.97;5116388;28;20194;-18
2023/03/07 02:36:25;;;;;;;0.70;0.70;;;4.00;67.70;;;3.53;54.40;93572.81;5115495;28;20194;-18
2023/03/07 02:39:07;;;;;;;0.70;0.70;;;4.00;67.60;;;3.55;54.21;93572.63;5115906;28;20214;-19
2023/03/07 02:41:37;;;;;;;0.70;0.70;;;4.00;67.50;;;3.56;54.46;93581.22;5115369;28;20213;-18
2023/03/07 02:44:11;;;;;;;0.70;0.70;;;4.10;68.40;;;3.60;54.58;93587.63;5099432;28;20273;-18
2023/03/07 02:46:39;;;;;;;0.70;0.70;;;4.10;67.60;;;3.58;54.63;93572.28;5115225;28;20554;-18
2023/03/07 02:49:06;;;;;;;0.80;0.80;;;4.10;67.60;;;3.64;54.25;93563.75;5132302;27;20211;-18
2023/03/07 02:51:33;;;;;;;0.70;0.70;;;4.10;67.50;;;3.69;53.78;93571.00;5131975;27;20571;-18
2023/03/07 02:54:00;;;;;;;0.80;0.80;;;4.10;67.40;;;3.73;54.16;93579.22;5115338;28;20194;-19
2023/03/07 02:56:27;;;;;;;0.70;0.70;;;4.20;67.50;;;3.74;53.94;93567.88;5115048;28;20221;-19
2023/03/07 02:58:55;;;;;;;0.80;0.80;;;4.20;67.50;;;3.75;53.81;93569.44;5098171;28;20272;-18
2023/03/07 03:01:22;;;;;;;0.68;0.68;;;4.20;67.40;;;3.77;53.59;93563.13;5131948;27;20226;-20
2023/03/07 03:03:49;;;;;;;0.80;0.80;;;4.20;67.30;;;3.80;53.58;93580.91;5115062;28;20195;-18
2023/03/07 03:06:16;;;;;;;0.70;0.70;;;4.30;67.40;;;3.82;53.87;93571.16;5115836;28;20213;-18
2023/03/07 03:08:43;;;;;;;0.70;0.70;;;4.20;67.30;;;3.82;53.59;93570.31;5115780;28;20206;-19
2023/03/07 03:11:10;;;;;;;0.60;0.60;;;4.30;67.30;;;3.85;53.44;93575.16;5114659;28;20194;-19
2023/03/07 03:13:38;;;;;;;0.60;0.60;;;4.30;67.30;;;3.86;53.68;93561.22;5131920;27;20237;-21
2023/03/07 03:16:06;;;;;;;0.60;0.60;;;4.30;67.30;;;3.87;53.61;93562.00;5114791;28;20202;-18
2023/03/07 03:18:33;;;;;;;0.70;0.70;;;4.30;67.20;;;3.85;53.85;93552.59;5131803;27;20305;-18
2023/03/07 03:21:10;;;;;;;0.70;0.70;;;4.30;67.30;;;3.86;53.50;93566.41;5115513;28;20182;-18
2023/03/07 03:23:37;;;;;;;0.70;0.70;;;4.40;67.30;;;3.91;53.64;93558.06;5115134;28;20232;-18
2023/03/07 03:26:10;;;;;;;0.80;0.80;;;4.40;67.30;;;3.91;53.47;93564.06;5131815;27;20613;-18
2023/03/07 03:28:39;;;;;;;0.70;0.70;;;4.40;67.30;;;3.90;53.57;93549.47;5131939;27;20497;-18
2023/03/07 03:31:10;;;;;;;0.80;0.80;;;4.40;67.30;;;3.91;53.71;93555.47;5115389;28;20277;-18
2023/03/07 03:33:39;;;;;;;0.80;0.80;;;4.40;67.40;;;3.91;53.66;93537.31;5115800;28;20190;-18
2023/03/07 03:36:15;;;;;;;0.80;0.80;;;4.40;67.30;;;3.90;53.55;93546.88;5114537;28;20231;-19
2023/03/07 03:38:45;;;;;;;0.70;0.70;;;4.40;67.30;;;3.91;53.49;93547.69;5114449;28;20267;-18
2023/03/07 03:41:17;;;;;;;0.80;0.80;;;4.40;67.30;;;3.93;53.48;93551.72;5114334;28;20190;-19
2023/03/07 03:43:46;;;;;;;0.80;0.80;;;4.40;67.30;;;3.94;53.63;93552.50;5115406;28;20260;-18
2023/03/07 03:46:16;;;;;;;0.70;0.70;;;4.40;67.30;;;3.94;53.78;93549.91;5114407;28;20205;-19
2023/03/07 03:48:43;;;;;;;0.60;0.60;;;4.40;67.30;;;3.93;53.50;93549.13;5114691;28;20190;-18
2023/03/07 03:51:15;;;;;;;0.70;0.70;;;4.40;67.30;;;3.94;53.53;93550.72;5114249;28;20208;-18
2023/03/07 03:53:42;;;;;;;0.70;0.70;;;4.40;67.30;;;3.96;53.54;93547.94;5114393;28;20278;-18
2023/03/07 03:56:13;;;;;;;0.80;0.80;;;4.40;67.20;;;3.97;53.23;93554.75;5115236;28;20628;-18
2023/03/07 03:58:41;;;;;;;0.60;0.60;;;4.40;67.20;;;4.01;53.36;93543.00;5131385;27;20218;-18
2023/03/07 04:01:11;;;;;;;0.70;0.70;;;4.50;67.20;;;3.99;53.37;93540.59;5115083;28;20194;-18
2023/03/07 04:03:41;;;;;;;0.70;0.70;;;4.50;67.30;;;4.05;53.16;93538.25;5115754;28;20194;-18
2023/03/07 04:06:12;;;;;;;0.70;0.70;;;4.50;67.20;;;4.06;53.30;93542.44;5118373;28;20243;-18
2023/03/07 04:08:40;;;;;;;0.77;0.77;;;4.50;67.20;;;4.09;53.20;93537.69;5119296;28;20178;-19
2023/03/07 04:11:08;;;;;;;0.60;0.60;;;4.50;67.10;;;4.11;53.14;93540.91;5135200;27;20228;-18
2023/03/07 04:13:35;;;;;;;0.70;0.70;;;4.50;67.10;;;4.11;52.72;93538.31;5118200;28;20198;-18
2023/03/07 04:16:04;;;;;;;0.80;0.80;;;4.50;67.10;;;4.16;53.25;93541.16;5135259;27;20713;-18
2023/03/07 04:18:31;;;;;;;0.70;0.70;;;4.60;67.10;;;4.18;52.89;93532.38;5118988;28;20194;-19
2023/03/07 04:20:58;;;;;;;0.70;0.70;;;4.60;67.10;;;4.18;52.90;93532.38;5101157;28;20190;-18
2023/03/07 04:23:26;;;;;;;0.70;0.70;;;4.60;67.10;;;4.16;52.87;93541.16;5117793;28;20541;-18
2023/03/07 04:25:56;;;;;;;0.70;0.70;;;4.60;67.10;;;4.17;52.77;93531.56;5119494;28;20259;-18
2023/03/07 04:28:40;;;;;;;0.77;0.77;;;4.60;67.00;;;4.19;52.58;93523.56;5118089;28;20198;-18
2023/03/07 04:31:09;;;;;;;0.70;0.70;;;4.60;67.00;;;4.19;52.58;93531.38;5134880;27;20192;-21
2023/03/07 04:33:36;;;;;;;0.70;0.70;;;4.60;66.90;;;4.23;52.54;93532.63;5117965;28;20197;-20
2023/03/07 04:36:04;;;;;;;0.60;0.60;;;4.60;67.10;;;4.18;52.93;93529.78;5134945;27;20217;-18
2023/03/07 04:38:31;;;;;;;0.70;0.70;;;4.60;67.00;;;4.15;52.90;93523.97;5118675;28;20280;-18
2023/03/07 04:40:59;;;;;;;0.68;0.68;;;4.60;67.00;;;4.16;52.78;93522.16;5134655;27;20194;-18
2023/03/07 04:43:26;;;;;;;0.68;0.68;;;4.60;66.90;;;4.19;52.88;93520.97;5118568;28;20637;-18
2023/03/07 04:45:53;;;;;;;0.70;0.70;;;4.70;67.00;;;4.16;52.95;93519.56;5118561;28;20219;-18
2023/03/07 04:48:20;;;;;;;0.60;0.60;;;4.70;67.10;;;4.18;52.91;93512.41;5118793;28;20206;-18
2023/03/07 04:50:49;;;;;;;0.80;0.80;;;4.60;67.00;;;4.18;52.85;93525.38;5118320;28;20193;-18
2023/03/07 04:53:18;;;;;;;0.60;0.60;;;4.60;66.90;;;4.18;53.04;93519.41;5117454;28;20272;-18
2023/03/07 04:55:46;;;;;;;0.60;0.60;;;4.70;67.00;;;4.21;52.70;93509.44;5117404;28;20197;-18
2023/03/07 04:58:13;;;;;;;0.60;0.60;;;4.70;67.00;;;4.20;53.12;93509.63;5118547;28;20277;-19
2023/03/07 05:00:42;;;;;;;0.70;0.70;;;4.70;67.00;;;4.21;52.96;93513.81;5134257;27;20305;-18
2023/03/07 05:03:11;;;;;;;0.70;0.70;;;4.70;67.00;;;4.23;53.06;93512.63;5118834;28;20189;-18
2023/03/07 05:05:39;;;;;;;0.70;0.70;;;4.70;67.00;;;4.27;52.82;93511.28;5134386;27;20262;-18
2023/03/07 05:08:07;;;;;;;0.70;0.70;;;4.70;66.90;;;4.29;52.61;93508.50;5117179;28;20205;-18
2023/03/07 05:10:35;;;;;;;0.60;0.60;;;4.70;66.90;;;4.29;52.57;93511.09;5117120;28;20194;-19
2023/03/07 05:13:03;;;;;;;0.50;0.50;;;4.70;66.90;;;4.31;52.67;93509.91;5117886;28;20236;-19
2023/03/07 05:15:30;;;;;;;0.60;0.60;;;4.70;66.80;;;4.34;52.49;93503.53;5116066;28;20278;-18
2023/03/07 05:17:57;;;;;;;0.88;0.88;;;4.70;66.80;;;4.30;52.52;93490.13;5134111;27;20190;-19
2023/03/07 05:20:26;;;;;;;0.70;0.70;;;4.80;66.90;;;4.34;52.56;93503.53;5134018;27;20232;-18
2023/03/07 05:22:53;;;;;;;0.60;0.60;;;4.80;66.90;;;4.38;52.52;93504.78;5133618;27;20281;-19
2023/03/07 05:25:21;;;;;;;0.60;0.60;;;4.80;66.90;;;4.37;52.63;93504.97;5134023;27;20209;-19
2023/03/07 05:27:48;;;;;;;0.60;0.60;;;4.70;66.90;;;4.35;52.30;93499.19;5116768;28;20209;-19
2023/03/07 05:30:16;;;;;;;0.70;0.70;;;4.70;66.90;;;4.34;52.67;93498.34;5116740;28;20297;-18
2023/03/07 05:32:43;;;;;;;0.70;0.70;;;4.70;66.90;;;4.31;52.54;93498.75;5116611;28;20631;-18
2023/03/07 05:35:12;;;;;;;0.60;0.60;;;4.80;66.90;;;4.37;52.57;93505.78;5117014;28;20186;-18
2023/03/07 05:37:40;;;;;;;0.60;0.60;;;4.80;66.90;;;4.35;52.60;93497.38;5116606;28;20217;-18
2023/03/07 05:40:09;;;;;;;0.70;0.70;;;4.80;66.90;;;4.35;52.83;93504.38;5133660;27;20301;-18
2023/03/07 05:42:40;;;;;;;0.70;0.70;;;4.80;66.90;;;4.34;52.63;93503.53;5116374;28;20194;-18
2023/03/07 05:45:09;;;;;;;0.70;0.70;;;4.80;66.80;;;4.36;52.36;93504.16;5116438;28;20198;-18
2023/03/07 05:47:37;;;;;;;0.50;0.50;;;4.80;66.80;;;4.36;52.72;93500.75;5117608;28;20198;-19
2023/03/07 05:50:08;;;;;;;0.80;0.80;;;4.80;66.80;;;4.33;52.43;93501.94;5117414;28;20192;-18
2023/03/07 05:52:36;;;;;;;0.70;0.70;;;4.80;67.70;;;4.38;52.55;93504.78;5116164;28;20664;-18
2023/03/07 05:55:03;;;;;;;0.70;0.70;;;4.80;66.80;;;4.40;52.74;93510.59;5116412;27;20271;-18
2023/03/07 05:57:31;;;;;;;0.60;0.60;;;4.80;66.70;;;4.37;52.40;93503.19;5116779;28;20209;-18
2023/03/07 05:59:58;;;;;;;0.70;0.70;;;4.90;66.90;;;4.41;52.41;93498.41;5117237;28;20624;-18
2023/03/07 06:02:26;;;;;;;0.80;0.80;;;4.90;66.90;;;4.43;52.67;93494.63;5082466;28;20197;-19
2023/03/07 06:04:52;;;;;;;0.70;0.70;;;4.90;66.80;;;4.49;52.50;93487.88;5116065;28;20202;-18
2023/03/07 06:07:20;;;;;;;0.80;0.80;;;4.90;66.90;;;4.49;52.31;93482.69;5116047;28;20255;-18
2023/03/07 06:09:47;;;;;;;0.70;0.70;;;4.90;66.80;;;4.53;52.11;93483.91;5116618;28;20190;-19
2023/03/07 06:12:14;;;;;;;0.60;0.60;;;5.00;66.80;;;4.54;52.38;93495.09;5132851;27;20198;-18
2023/03/07 06:14:41;;;;;;;0.80;0.80;;;5.00;66.70;;;4.56;51.87;93491.31;5117341;28;20524;-18
2023/03/07 06:17:08;;;;;;;0.80;0.80;;;5.00;66.60;;;4.52;52.36;93487.50;5116201;28;20194;-18
2023/03/07 06:19:35;;;;;;;0.60;0.60;;;5.00;66.60;;;4.52;52.35;93484.91;5115697;28;20270;-18
2023/03/07 06:22:02;;;;;;;0.80;0.80;;;5.10;66.70;;;4.55;52.46;93481.13;5132666;27;20209;-18
2023/03/07 06:24:30;;;;;;;0.80;0.80;;;5.10;66.70;;;4.60;52.11;93484.78;5116471;28;20687;-19
2023/03/07 06:26:57;;;;;;;0.70;0.70;;;5.10;66.70;;;4.62;52.01;93487.97;5115502;28;20638;-18
2023/03/07 06:29:24;;;;;;;0.73;0.73;;;5.10;66.60;;;4.64;51.88;93482.59;5115598;28;20189;-18
2023/03/07 06:31:51;;;;;;;0.70;0.70;;;5.20;66.70;;;4.63;52.29;93499.16;5132514;27;20597;-19
2023/03/07 06:34:18;;;;;;;0.70;0.70;;;5.10;66.50;;;4.71;51.88;93506.00;5117006;28;20201;-19
2023/03/07 06:36:47;;;;;;;0.70;0.70;;;5.20;66.60;;;4.73;51.90;93507.41;5115439;28;20706;-18
2023/03/07 06:39:19;;;;;;;0.70;0.70;;;5.20;66.50;;;4.74;51.79;93503.03;5116168;28;20218;-18
2023/03/07 06:41:50;;;;;;;0.80;0.80;;;5.20;66.50;;;4.79;52.02;93503.25;5132373;27;20276;-18
2023/03/07 06:44:17;;;;;;;0.70;0.70;;;5.30;66.60;;;4.84;51.70;93502.69;5115414;28;20220;-19
2023/03/07 06:46:45;;;;;;;0.50;0.50;;;5.30;66.50;;;4.85;51.66;93499.88;5132434;27;20194;-19
2023/03/07 06:49:15;;;;;;;0.70;0.70;;;5.40;66.50;;;4.90;51.27;93499.31;5115292;28;20218;-33
2023/03/07 06:51:45;;;;;;;0.63;0.63;;;5.40;66.40;;;4.95;51.34;93491.75;5098608;28;20190;-18
2023/03/07 06:54:12;;;;;;;0.80;0.80;;;5.40;66.30;;;4.98;50.97;93496.56;5132334;27;20525;-18
2023/03/07 06:56:39;;;;;;;0.70;0.70;;;5.50;66.10;;;5.05;51.20;93505.19;5115268;27;20209;-18
2023/03/07 06:59:09;;;;;;;0.80;0.80;;;5.50;66.20;;;5.08;50.79;93507.41;5115126;28;20221;-19
2023/03/07 07:01:36;;;;;;;0.70;0.70;;;5.60;66.10;;;5.13;51.13;93501.63;5115422;28;20186;-18
2023/03/07 07:04:04;;;;;;;0.70;0.70;;;5.60;66.10;;;5.19;51.10;93505.25;5132026;27;20637;-18
2023/03/07 07:06:31;;;;;;;0.80;0.80;;;5.60;66.00;;;5.25;50.55;93499.28;5115285;28;20206;-18
2023/03/07 07:08:58;;;;;;;0.70;0.70;;;5.70;65.90;;;5.31;50.46;93498.50;5115437;28;20261;-18
2023/03/07 07:11:30;;;;;;;0.70;0.70;;;5.80;65.90;;;5.35;50.44;93498.94;5099456;28;20206;-18
2023/03/07 07:13:59;;;;;;;0.60;0.60;;;5.80;65.70;;;5.42;50.06;93508.34;5114863;28;20542;-33
2023/03/07 07:16:26;;;;;;;0.70;0.70;;;5.90;65.80;;;5.47;50.04;93509.56;5115915;28;20208;-18
2023/03/07 07:18:53;;;;;;;0.60;0.60;;;5.90;65.60;;;5.52;49.79;93520.97;5115107;28;20581;-19
2023/03/07 07:21:21;;;;;;;0.70;0.70;;;6.00;65.50;;;5.55;49.76;93506.78;5114913;28;20278;-19
2023/03/07 07:23:48;;;;;;;0.50;0.50;;;6.00;65.30;;;5.61;49.83;93501.63;5097700;28;20261;-18
2023/03/07 07:26:15;;;;;;;0.70;0.70;;;6.10;65.60;;;5.70;49.35;93504.03;5116014;28;20198;-19
2023/03/07 07:28:42;;;;;;;0.60;0.60;;;6.20;65.30;;;5.72;49.23;93505.41;5116283;28;20198;-18
2023/03/07 07:31:09;;;;;;;0.70;0.70;;;6.20;65.10;;;5.77;49.99;93489.22;5131943;27;20194;-18
2023/03/07 07:33:36;;;;;;;0.77;0.77;;;6.20;65.30;;;5.85;49.51;93501.28;5131855;27;20216;-18
2023/03/07 07:36:06;;;;;;;0.70;0.70;;;6.30;65.40;;;5.89;49.41;93503.25;5132088;27;20534;-18
2023/03/07 07:38:35;;;;;;;0.60;0.60;;;6.40;65.20;;;5.98;49.37;93503.91;5114700;28;20194;-18
2023/03/07 07:41:02;;;;;;;0.70;0.70;;;6.50;65.20;;;6.02;49.19;93497.31;5131886;27;20222;-19
2023/03/07 07:43:31;;;;;;;0.60;0.60;;;6.50;65.00;;;6.08;48.97;93499.13;5131499;28;20208;-18
2023/03/07 07:46:08;;;;;;;0.70;0.70;;;6.60;64.90;;;6.10;48.97;93496.31;5114678;28;20254;-18
2023/03/07 07:48:36;;;;;;;0.60;0.60;;;6.70;64.60;;;6.15;48.59;93485.31;5131873;28;20178;-19
2023/03/07 07:51:04;;;;;;;0.60;0.60;;;6.70;64.50;;;6.17;48.69;93486.69;5097758;28;20194;-18
2023/03/07 07:53:35;;;;;;;0.70;0.70;;;6.70;64.60;;;6.21;48.71;93472.31;5115050;28;20217;-19
2023/03/07 07:56:02;;;;;;;0.70;0.70;;;6.80;64.60;;;6.32;48.58;93489.09;5114504;28;20202;-35
2023/03/07 07:58:29;;;;;;;0.60;0.60;;;6.80;64.40;;;6.39;47.75;93492.50;5114800;28;20212;-20
2023/03/07 08:00:57;;;;;;;0.70;0.70;;;6.90;64.20;;;6.40;47.33;93475.09;5114512;28;20308;-18
2023/03/07 08:03:24;;;;;;;0.70;0.70;;;6.90;63.80;;;6.39;47.29;93487.31;5115425;28;20543;-19
2023/03/07 08:05:52;;;;;;;0.60;0.60;;;6.90;63.90;;;6.43;48.16;93479.88;5114608;28;20306;-18
2023/03/07 08:08:19;;;;;;;0.70;0.70;;;6.90;64.20;;;6.52;47.22;93488.31;5114621;28;20539;-21
2023/03/07 08:10:47;;;;;;;0.70;0.70;;;7.00;63.70;;;6.63;46.51;93485.09;5115528;28;20189;-33
2023/03/07 08:13:16;;;;;;;0.70;0.70;;;7.10;63.40;;;6.70;46.45;93491.09;5115244;27;20202;-18
2023/03/07 08:15:43;;;;;;;0.70;0.70;;;7.20;63.10;;;6.73;46.22;93484.69;5115494;28;20194;-18
2023/03/07 08:18:10;;;;;;;0.60;0.60;;;7.30;63.10;;;6.71;46.75;93497.09;5115504;28;20210;-19
2023/03/07 08:20:38;;;;;;;0.70;0.70;;;7.20;63.30;;;6.71;46.41;93484.88;5114408;28;20222;-18
2023/03/07 08:23:06;;;;;;;0.70;0.70;;;7.30;63.10;;;6.81;45.75;93492.28;5114264;28;20187;-32
2023/03/07 08:25:33;;;;;;;0.70;0.70;;;7.30;62.70;;;6.79;45.53;93486.47;5115234;28;20590;-18
2023/03/07 08:28:02;;;;;;;0.70;0.70;;;7.30;62.30;;;6.76;45.36;93486.06;5115730;27;20259;-19
2023/03/07 08:30:32;;;;;;;0.70;0.70;;;7.30;62.30;;;6.80;45.14;93488.06;5115700;27;20198;-19
2023/03/07 08:32:59;;;;;;;0.70;0.70;;;7.30;63.20;;;6.85;45.26;93487.47;5114241;28;20198;-18
2023/03/07 08:35:30;;;;;;;0.70;0.70;;;7.40;62.40;;;6.91;45.67;93478.00;5131847;28;20194;-19
2023/03/07 08:37:59;;;;;;;0.70;0.70;;;7.40;62.40;;;6.96;45.07;93476.41;5115775;28;20606;-18
2023/03/07 08:40:30;;;;;;;0.60;0.60;;;7.50;62.10;;;6.98;45.14;93477.00;5115583;28;20702;-18
2023/03/07 08:43:00;;;;;;;0.60;0.60;;;7.50;62.10;;;7.04;45.27;93488.41;5115105;28;20179;-18
2023/03/07 08:45:27;;;;;;;0.60;0.60;;;7.60;62.20;;;7.07;45.22;93501.03;5115343;28;20190;-18
2023/03/07 08:47:55;;;;;;;0.70;0.70;;;7.60;62.10;;;7.14;44.90;93490.56;5115600;28;20555;-28
2023/03/07 08:50:26;;;;;;;0.50;0.50;;;7.60;62.00;;;7.17;44.83;93490.19;5114386;28;20206;-18
2023/03/07 08:52:53;;;;;;;0.60;0.60;;;7.70;62.00;;;7.25;44.54;93492.56;5135286;27;20277;-19
2023/03/07 08:55:20;;;;;;;0.70;0.70;;;7.70;61.70;;;7.27;44.65;93487.13;5118520;28;20190;-18
2023/03/07 08:57:47;;;;;;;0.60;0.60;;;7.80;61.80;;;7.34;44.61;93478.28;5100783;28;20210;-25
2023/03/07 09:00:16;;;;;;;0.60;0.60;;;7.80;61.70;;;7.47;44.61;93480.03;5118404;28;20210;-18
2023/03/07 09:02:43;;;;;;;0.70;0.70;;;7.90;61.60;;;7.45;43.57;93489.06;5118204;28;20214;-19
2023/03/07 09:05:10;;;;;;;0.60;0.60;;;8.00;61.10;;;7.35;43.39;93494.75;5118342;28;20190;-19
2023/03/07 09:07:37;;;;;;;0.60;0.60;;;8.00;60.70;;;7.35;43.80;93502.56;5118772;28;20182;-21
2023/03/07 09:10:05;;;;;;;0.65;0.65;;;7.90;61.00;;;7.35;43.26;93481.69;5118365;28;20255;-20
2023/03/07 09:12:33;;;;;;;0.70;0.70;;;7.90;60.70;;;7.33;43.47;93489.72;5117311;28;20205;-18
2023/03/07 09:15:00;;;;;;;0.70;0.70;;;7.90;61.20;;;7.43;43.36;93484.03;5117508;28;20198;-19
2023/03/07 09:17:27;;;;;;;0.80;0.80;;;7.90;61.00;;;7.55;43.39;93481.59;5118131;28;20194;-20
2023/03/07 09:19:55;;;;;;;0.60;0.60;;;8.00;61.10;;;7.67;42.79;93484.34;5118340;28;20193;-19
2023/03/07 09:22:22;;;;;;;0.80;0.80;;;8.20;60.60;;;7.71;42.81;93479.50;5117081;28;20554;-18
2023/03/07 09:24:49;;;;;;;0.50;0.50;;;8.20;60.70;;;7.74;42.97;93490.34;5118007;28;20229;-18
2023/03/07 09:27:16;;;;;;;0.70;0.70;;;8.30;60.60;;;7.79;42.46;93477.47;5117954;28;20190;-18
2023/03/07 09:29:44;;;;;;;0.70;0.70;;;8.30;60.40;;;7.87;43.00;93465.94;5117842;28;20201;-19
2023/03/07 09:32:11;;;;;;;0.70;0.70;;;8.40;60.50;;;7.93;43.25;93475.56;5116969;27;20202;-18
2023/03/07 09:34:39;;;;;;;0.50;0.50;;;8.50;60.60;;;8.15;42.39;93470.81;5116773;28;20686;-18
2023/03/07 09:37:06;;;;;;;0.60;0.60;;;8.60;60.20;;;8.08;42.30;93469.22;5117973;28;20193;-18
2023/03/07 09:39:33;;;;;;;0.70;0.70;;;8.70;60.10;;;8.13;42.60;93458.94;5117592;28;20255;-19
2023/03/07 09:42:27;;;;;;;0.60;0.60;;;8.70;60.10;;;8.29;41.69;93460.25;5117633;28;20233;-19
2023/03/07 09:45:09;;;;;;;0.60;0.60;;;8.80;59.90;;;8.29;41.85;93453.19;5116777;28;20293;-20
2023/03/07 09:48:15;;;;;;;0.70;0.70;;;8.80;59.70;;;8.39;42.31;93455.34;5117865;28;20190;-18
2023/03/07 09:50:58;;;;;;;0.60;0.60;;;8.90;60.10;;;8.47;40.84;93455.09;5117533;28;20192;-19
2023/03/07 09:53:40;;;;;;;0.50;0.50;;;9.00;58.80;;;8.49;41.48;93453.09;5117368;28;20625;-18
2023/03/07 09:56:34;;;;;;;0.60;0.60;;;9.10;59.20;;;8.57;40.23;93462.44;5117636;28;20209;-18
2023/03/07 09:59:37;;;;;;;0.50;0.50;;;9.10;58.00;;;8.43;40.83;93466.16;5116985;28;20186;-19
2023/03/07 10:02:16;;;;;;;0.50;0.50;;;9.10;58.80;;;8.33;41.38;93450.97;5115929;28;20209;-18
2023/03/07 10:04:53;;;;;;;0.60;0.60;;;9.00;58.60;;;8.28;41.43;93462.06;5117623;28;20293;-18
2023/03/07 10:07:24;;;;;;;0.60;0.60;;;9.00;58.70;;;8.29;41.65;93452.41;5116962;28;20191;-18
2023/03/07 10:09:59;;;;;;;0.70;0.70;;;8.90;60.30;;;8.44;41.56;93445.03;5133779;27;20171;-19
2023/03/07 10:12:47;;;;;;;0.70;0.70;;;9.00;59.10;;;8.64;41.20;93444.91;5116176;28;20201;-20
2023/03/07 10:15:32;;;;;;;0.60;0.60;;;9.10;59.10;;;8.85;41.65;93448.13;5116413;28;20175;-19
2023/03/07 10:18:26;;;;;;;0.60;0.60;;;9.30;59.40;;;9.01;39.67;93454.56;5117209;28;20182;-19
2023/03/07 10:21:30;;;;;;;0.70;0.70;;;9.50;57.90;;;9.04;39.92;93433.19;5116091;28;20217;-18
2023/03/07 10:24:21;;;;;;;0.60;0.60;;;9.60;57.60;;;9.15;41.00;93450.00;5116632;28;20282;-18
2023/03/07 10:27:14;;;;;;;0.60;0.60;;;9.60;58.40;;;9.27;39.16;93456.06;5115899;28;20597;-19
2023/03/07 10:29:48;;;;;;;0.60;0.60;;;9.80;57.50;;;9.28;39.69;93436.75;5132854;27;20197;-18
2023/03/07 10:32:58;;;;;;;0.63;0.63;;;9.80;57.20;;;9.34;39.04;93439.50;5116808;28;20182;-20
2023/03/07 10:36:11;;;;;;;0.70;0.70;;;9.90;57.30;;;9.36;39.01;93434.84;5115892;28;20186;-19
2023/03/07 10:39:03;;;;;;;0.60;0.60;;;10.00;54.90;;;9.38;40.34;93430.22;5117131;28;20186;-18
2023/03/07 10:41:30;;;;;;;0.70;0.70;;;10.00;56.00;;;9.39;38.62;93437.03;5117004;28;20210;-19
2023/03/07 10:43:57;;;;;;;0.63;0.63;;;10.00;54.00;;;9.35;39.18;93428.03;5116427;28;20194;-18
2023/03/07 10:46:29;;;;;;;0.80;0.80;;;10.00;54.10;;;9.24;40.04;93421.69;5116467;28;20729;-19